createdAt,value
2023-04-12T00:01:35.094Z,1.83
2023-04-12T00:04:05.730Z,1.90
2023-04-12T00:06:33.797Z,1.98
2023-04-12T00:09:04.484Z,1.88
2023-04-12T00:11:33.114Z,2.03
2023-04-12T00:14:01.062Z,2.40
2023-04-12T00:16:29.191Z,2.03
2023-04-12T00:18:57.471Z,2.13
2023-04-12T00:21:28.877Z,1.85
2023-04-12T00:23:57.434Z,2.17
2023-04-12T00:26:26.844Z,1.90
2023-04-12T00:28:55.842Z,1.80
2023-04-12T00:31:23.822Z,1.83
2023-04-12T00:33:51.932Z,1.73
2023-04-12T00:36:20.036Z,1.25
2023-04-12T00:38:48.105Z,1.40
2023-04-12T00:41:16.494Z,1.83
2023-04-12T00:43:45.794Z,1.15
2023-04-12T00:46:13.776Z,1.20
2023-04-12T00:48:41.840Z,1.00
2023-04-12T00:51:09.976Z,1.10
2023-04-12T00:53:40.933Z,1.30
2023-04-12T00:56:11.972Z,1.20
2023-04-12T00:58:39.960Z,1.20
2023-04-12T01:01:10.723Z,1.60
2023-04-12T01:03:43.493Z,1.15
2023-04-12T01:06:17.360Z,1.17
2023-04-12T01:08:55.874Z,1.00
2023-04-12T01:11:33.776Z,1.40
2023-04-12T01:14:09.522Z,1.40
2023-04-12T01:16:46.237Z,1.00
2023-04-12T01:19:38.397Z,1.45
2023-04-12T01:22:18.210Z,1.30
2023-04-12T01:24:57.585Z,1.27
2023-04-12T01:27:38.332Z,1.05
2023-04-12T01:30:09.349Z,0.85
2023-04-12T01:32:40.124Z,1.13
2023-04-12T01:35:10.960Z,1.00
2023-04-12T01:37:39.056Z,1.05
2023-04-12T01:40:09.515Z,0.90
2023-04-12T01:42:39.742Z,0.80
2023-04-12T01:45:08.957Z,0.90
2023-04-12T01:47:37.250Z,0.77
2023-04-12T01:50:16.149Z,0.70
2023-04-12T01:52:50.728Z,0.70
2023-04-12T01:55:22.789Z,0.80
2023-04-12T01:57:54.437Z,1.05
2023-04-12T02:00:23.649Z,0.75
2023-04-12T02:02:53.038Z,0.70
2023-04-12T02:05:22.341Z,0.90
2023-04-12T02:07:54.108Z,0.75
2023-04-12T02:10:30.000Z,0.60
2023-04-12T02:13:01.719Z,0.85
2023-04-12T02:15:31.852Z,0.70
2023-04-12T02:18:01.698Z,0.70
2023-04-12T02:20:30.706Z,0.70
2023-04-12T02:23:00.333Z,0.80
2023-04-12T02:25:28.382Z,0.55
2023-04-12T02:27:56.444Z,0.80
2023-04-12T02:30:26.810Z,0.88
2023-04-12T02:32:56.303Z,0.77
2023-04-12T02:35:28.640Z,0.70
2023-04-12T02:38:03.701Z,0.70
2023-04-12T02:40:31.764Z,0.80
2023-04-12T02:42:59.916Z,0.90
2023-04-12T02:45:29.664Z,0.90
2023-04-12T02:47:59.205Z,0.80
2023-04-12T02:50:30.356Z,0.80
2023-04-12T02:53:10.212Z,1.10
2023-04-12T02:55:40.430Z,1.35
2023-04-12T02:58:09.956Z,1.00
2023-04-12T03:00:46.766Z,1.10
2023-04-12T03:03:18.048Z,1.17
2023-04-12T03:05:53.629Z,1.10
2023-04-12T03:08:21.975Z,0.93
2023-04-12T03:10:56.441Z,1.02
2023-04-12T03:13:25.995Z,1.10
2023-04-12T03:16:00.237Z,0.80
2023-04-12T03:18:36.546Z,1.20
2023-04-12T03:21:05.664Z,1.33
2023-04-12T03:23:33.747Z,1.50
2023-04-12T03:26:20.400Z,1.00
2023-04-12T03:29:04.964Z,1.40
2023-04-12T03:31:37.339Z,1.25
2023-04-12T03:34:09.029Z,1.90
2023-04-12T03:36:41.689Z,1.90
2023-04-12T03:39:18.981Z,2.17
2023-04-12T03:41:52.961Z,3.10
2023-04-12T03:44:26.186Z,2.88
2023-04-12T03:46:57.787Z,2.10
2023-04-12T03:49:28.212Z,1.98
2023-04-12T03:51:57.232Z,2.15
2023-04-12T03:54:26.196Z,2.17
2023-04-12T03:57:04.064Z,1.80
2023-04-12T03:59:39.143Z,2.47
2023-04-12T04:02:09.224Z,1.70
2023-04-12T04:04:43.452Z,1.77
2023-04-12T04:07:14.340Z,1.83
2023-04-12T04:09:44.972Z,2.15
2023-04-12T04:12:13.526Z,1.70
2023-04-12T04:14:46.171Z,1.70
2023-04-12T04:17:24.365Z,1.60
2023-04-12T04:19:52.882Z,1.60
2023-04-12T04:22:21.667Z,2.00
2023-04-12T04:24:52.489Z,1.48
2023-04-12T04:27:22.300Z,1.40
2023-04-12T04:29:58.200Z,1.33
2023-04-12T04:32:27.625Z,1.30
2023-04-12T04:34:59.913Z,1.27
2023-04-12T04:37:35.996Z,1.33
2023-04-12T04:40:07.934Z,1.00
2023-04-12T04:42:39.851Z,1.58
2023-04-12T04:45:13.786Z,1.45
2023-04-12T04:47:46.533Z,1.20
2023-04-12T04:50:14.502Z,1.40
2023-04-12T04:52:42.507Z,1.50
2023-04-12T04:55:14.294Z,1.30
2023-04-12T04:57:46.053Z,1.40
2023-04-12T05:00:16.438Z,1.80
2023-04-12T05:02:49.537Z,1.35
2023-04-12T05:05:26.013Z,1.58
2023-04-12T05:08:00.642Z,1.52
2023-04-12T05:10:31.853Z,1.45
2023-04-12T05:13:03.372Z,1.67
2023-04-12T05:15:32.404Z,1.60
2023-04-12T05:18:02.932Z,1.48
2023-04-12T05:20:31.917Z,1.58
2023-04-12T05:23:01.202Z,1.77
2023-04-12T05:25:29.211Z,1.42
2023-04-12T05:28:04.608Z,1.48
2023-04-12T05:30:32.575Z,1.27
2023-04-12T05:33:02.663Z,1.30
2023-04-12T05:35:31.458Z,1.50
2023-04-12T05:38:00.913Z,1.20
2023-04-12T05:40:28.978Z,1.40
2023-04-12T05:42:56.950Z,1.50
2023-04-12T05:45:26.412Z,1.45
2023-04-12T05:47:54.877Z,1.40
2023-04-12T05:50:25.093Z,1.73
2023-04-12T05:52:53.834Z,1.30
2023-04-12T05:55:27.182Z,1.00
2023-04-12T05:57:58.885Z,0.98
2023-04-12T06:00:29.006Z,1.30
2023-04-12T06:02:58.667Z,1.33
2023-04-12T06:05:28.371Z,1.50
2023-04-12T06:07:56.432Z,1.55
2023-04-12T06:10:24.363Z,1.60
2023-04-12T06:12:54.620Z,1.40
2023-04-12T06:15:22.711Z,1.30
2023-04-12T06:17:55.595Z,1.73
2023-04-12T06:20:23.573Z,1.63
2023-04-12T06:22:53.233Z,1.70
2023-04-12T06:25:23.044Z,1.50
2023-04-12T06:27:51.649Z,1.50
2023-04-12T06:30:21.101Z,2.17
2023-04-12T06:32:52.549Z,2.17
2023-04-12T06:35:21.664Z,2.10
2023-04-12T06:37:49.879Z,1.85
2023-04-12T06:40:19.678Z,1.55
2023-04-12T06:42:47.656Z,1.30
2023-04-12T06:45:22.852Z,1.00
2023-04-12T06:47:50.939Z,1.20
2023-04-12T06:50:19.593Z,1.10
2023-04-12T06:52:48.804Z,1.42
2023-04-12T06:55:17.099Z,1.08
2023-04-12T06:57:46.542Z,1.40
2023-04-12T07:00:15.614Z,1.50
2023-04-12T07:02:43.866Z,1.20
2023-04-12T07:05:12.016Z,1.38
2023-04-12T07:07:39.933Z,1.33
2023-04-12T07:10:09.108Z,1.20
2023-04-12T07:12:37.082Z,2.03
2023-04-12T07:15:07.335Z,1.65
2023-04-12T07:17:35.389Z,1.85
2023-04-12T07:20:03.600Z,1.58
2023-04-12T07:22:31.538Z,1.50
2023-04-12T07:24:59.514Z,1.70
2023-04-12T07:27:27.486Z,1.83
2023-04-12T07:29:55.551Z,1.58
2023-04-12T07:32:24.921Z,1.55
2023-04-12T07:34:53.220Z,1.20
2023-04-12T07:37:21.317Z,1.25
2023-04-12T07:39:49.339Z,1.35
2023-04-12T07:42:17.727Z,1.40
2023-04-12T07:44:45.664Z,1.20
2023-04-12T07:47:13.566Z,1.30
2023-04-12T07:49:42.880Z,1.23
2023-04-12T07:52:10.821Z,1.10
2023-04-12T07:54:38.878Z,1.25
2023-04-12T07:57:08.022Z,1.10
2023-04-12T07:59:36.718Z,1.10
2023-04-12T08:02:06.260Z,4.32
2023-04-12T08:04:34.400Z,1.20
2023-04-12T08:07:03.667Z,1.30
2023-04-12T08:09:31.594Z,1.38
2023-04-12T08:11:59.516Z,1.38
2023-04-12T08:14:27.600Z,1.85
2023-04-12T08:16:55.494Z,1.80
2023-04-12T08:19:23.423Z,1.90
2023-04-12T08:21:51.337Z,2.10
2023-04-12T08:24:20.971Z,2.45
2023-04-12T08:26:48.866Z,2.50
2023-04-12T08:29:16.754Z,2.53
2023-04-12T08:31:44.998Z,2.03
2023-04-12T08:34:13.024Z,1.92
2023-04-12T08:36:41.171Z,1.75
2023-04-12T08:39:09.557Z,1.50
2023-04-12T08:41:40.190Z,1.27
2023-04-12T08:44:08.488Z,1.55
2023-04-12T08:46:37.505Z,1.20
2023-04-12T08:49:05.606Z,0.90
2023-04-12T08:51:36.255Z,1.20
2023-04-12T08:54:04.311Z,0.80
2023-04-12T08:56:33.304Z,0.93
2023-04-12T08:59:03.598Z,1.08
2023-04-12T09:01:31.585Z,1.15
2023-04-12T09:03:59.907Z,0.93
2023-04-12T09:06:28.269Z,1.20
2023-04-12T09:08:58.029Z,0.93
2023-04-12T09:11:27.298Z,1.10
2023-04-12T09:13:56.521Z,1.23
2023-04-12T09:16:40.306Z,1.27
2023-04-12T09:19:09.378Z,1.10
2023-04-12T09:21:38.805Z,1.67
2023-04-12T09:24:12.358Z,1.20
2023-04-12T09:26:42.316Z,1.77
2023-04-12T09:29:24.294Z,1.30
2023-04-12T09:32:04.071Z,1.77
2023-04-12T09:34:33.426Z,1.60
2023-04-12T09:37:01.418Z,1.45
2023-04-12T09:39:33.283Z,1.63
2023-04-12T09:42:24.884Z,1.95
2023-04-12T09:44:58.407Z,1.30
2023-04-12T09:47:40.022Z,1.67
2023-04-12T09:50:09.971Z,1.58
2023-04-12T09:52:38.716Z,1.55
2023-04-12T09:55:10.712Z,1.65
2023-04-12T09:57:40.389Z,1.83
2023-04-12T10:00:17.221Z,1.42
2023-04-12T10:02:51.243Z,1.27
2023-04-12T10:05:21.625Z,1.50
2023-04-12T10:07:50.944Z,1.70
2023-04-12T10:10:20.698Z,1.55
2023-04-12T10:12:50.078Z,1.38
2023-04-12T10:15:20.811Z,1.55
2023-04-12T10:17:57.558Z,1.40
2023-04-12T10:20:28.983Z,1.70
2023-04-12T10:22:59.706Z,1.10
2023-04-12T10:25:31.794Z,1.17
2023-04-12T10:28:14.941Z,1.85
2023-04-12T10:30:43.011Z,1.73
2023-04-12T10:33:17.947Z,1.35
2023-04-12T10:35:55.462Z,1.63
2023-04-12T10:38:26.901Z,1.35
2023-04-12T10:41:18.505Z,1.10
2023-04-12T10:43:47.551Z,1.05
2023-04-12T10:46:49.419Z,1.52
2023-04-12T10:49:19.251Z,1.65
2023-04-12T10:52:13.784Z,1.10
2023-04-12T10:54:41.906Z,1.70
2023-04-12T10:57:43.085Z,1.67
2023-04-12T11:00:12.113Z,1.30
2023-04-12T11:03:12.643Z,1.00
2023-04-12T11:06:16.256Z,1.40
2023-04-12T11:09:21.881Z,1.20
2023-04-12T11:11:50.511Z,1.13
2023-04-12T11:14:19.432Z,1.23
2023-04-12T11:17:22.601Z,1.05
2023-04-12T11:20:02.162Z,1.30
2023-04-12T11:22:33.870Z,1.10
2023-04-12T11:25:03.471Z,1.20
2023-04-12T11:27:32.787Z,1.30
2023-04-12T11:30:02.288Z,1.20
2023-04-12T11:32:31.887Z,1.23
2023-04-12T11:35:00.041Z,1.48
2023-04-12T11:37:33.198Z,1.63
2023-04-12T11:40:01.140Z,1.25
2023-04-12T11:42:30.174Z,1.27
2023-04-12T11:45:03.120Z,1.67
2023-04-12T11:47:33.158Z,1.77
2023-04-12T11:50:01.118Z,1.27
2023-04-12T11:52:30.623Z,1.08
2023-04-12T11:55:04.790Z,1.00
2023-04-12T11:57:33.167Z,1.15
2023-04-12T12:00:05.941Z,1.05
2023-04-12T12:02:46.438Z,1.35
2023-04-12T12:05:17.716Z,1.15
2023-04-12T12:07:46.030Z,1.15
2023-04-12T12:10:27.582Z,1.50
2023-04-12T12:13:03.626Z,1.40
2023-04-12T12:15:32.087Z,1.10
2023-04-12T12:18:02.232Z,1.23
2023-04-12T12:20:30.406Z,1.20
2023-04-12T12:22:58.284Z,1.10
2023-04-12T12:25:27.690Z,1.50
2023-04-12T12:27:59.532Z,1.30
2023-04-12T12:30:27.557Z,1.30
2023-04-12T12:32:56.369Z,1.08
2023-04-12T12:35:27.571Z,1.25
2023-04-12T12:37:59.012Z,1.25
2023-04-12T12:40:32.822Z,1.23
2023-04-12T12:43:01.432Z,1.35
2023-04-12T12:45:31.151Z,1.25
2023-04-12T12:48:00.558Z,1.27
2023-04-12T12:50:29.912Z,1.40
2023-04-12T12:52:58.316Z,1.70
2023-04-12T12:55:26.597Z,2.08
2023-04-12T12:58:07.265Z,2.17
2023-04-12T13:00:36.494Z,2.00
2023-04-12T13:03:04.847Z,1.60
2023-04-12T13:05:33.104Z,1.65
2023-04-12T13:08:01.083Z,1.75
2023-04-12T13:10:28.993Z,1.13
2023-04-12T13:12:58.763Z,1.45
2023-04-12T13:15:26.737Z,1.27
2023-04-12T13:17:55.297Z,1.42
2023-04-12T13:20:23.838Z,1.33
2023-04-12T13:22:52.588Z,1.58
2023-04-12T13:25:21.185Z,1.40
2023-04-12T13:27:49.944Z,1.48
2023-04-12T13:30:20.224Z,1.95
2023-04-12T13:32:48.317Z,2.17
2023-04-12T13:35:16.398Z,1.70
2023-04-12T13:37:44.379Z,2.25
2023-04-12T13:40:12.595Z,2.05
2023-04-12T13:42:40.717Z,2.00
2023-04-12T13:45:11.272Z,1.60
2023-04-12T13:47:41.344Z,4.80
2023-04-12T13:50:10.354Z,2.20
2023-04-12T13:52:38.281Z,1.60
2023-04-12T13:55:08.626Z,2.20
2023-04-12T13:57:36.775Z,2.20
2023-04-12T14:00:05.225Z,2.47
2023-04-12T14:02:33.436Z,2.10
2023-04-12T14:05:03.111Z,2.00
2023-04-12T14:07:31.395Z,2.15
2023-04-12T14:09:59.306Z,2.30
2023-04-12T14:12:27.294Z,3.38
2023-04-12T14:14:55.389Z,3.30
2023-04-12T14:17:23.505Z,3.13
2023-04-12T14:19:51.798Z,2.88
2023-04-12T14:22:21.175Z,2.45
2023-04-12T14:24:49.153Z,2.15
2023-04-12T14:27:18.146Z,1.88
2023-04-12T14:29:46.598Z,2.55
2023-04-12T14:32:14.585Z,2.20
2023-04-12T14:34:43.556Z,2.05
2023-04-12T14:37:11.582Z,1.65
2023-04-12T14:39:40.919Z,2.10
2023-04-12T14:42:08.861Z,1.80
2023-04-12T14:44:36.830Z,1.70
2023-04-12T14:47:04.754Z,2.60
2023-04-12T14:49:33.330Z,3.22
2023-04-12T14:52:02.065Z,3.42
2023-04-12T14:54:29.997Z,2.85
2023-04-12T14:57:00.534Z,2.90
2023-04-12T14:59:28.489Z,3.20
2023-04-12T15:01:58.722Z,3.65
2023-04-12T15:04:26.842Z,3.20
2023-04-12T15:06:54.845Z,3.15
2023-04-12T15:09:22.732Z,3.38
2023-04-12T15:11:55.027Z,3.50
2023-04-12T15:14:25.369Z,3.88
2023-04-12T15:16:53.571Z,4.40
2023-04-12T15:19:23.397Z,4.75
2023-04-12T15:21:52.253Z,3.97
2023-04-12T15:24:20.919Z,3.92
2023-04-12T15:26:50.875Z,3.90
2023-04-12T15:29:19.658Z,4.00
2023-04-12T15:31:49.067Z,5.13
2023-04-12T15:34:17.533Z,4.28
2023-04-12T15:36:45.991Z,4.65
2023-04-12T15:39:15.139Z,3.75
2023-04-12T15:41:43.776Z,4.10
2023-04-12T15:44:13.532Z,4.03
2023-04-12T15:46:42.461Z,3.45
2023-04-12T15:49:12.117Z,4.45
2023-04-12T15:51:40.234Z,3.58
2023-04-12T15:54:08.113Z,3.60
2023-04-12T15:56:38.046Z,4.65
2023-04-12T15:59:06.241Z,4.53
2023-04-12T16:01:35.810Z,4.35
2023-04-12T16:04:05.291Z,4.30
2023-04-12T16:06:38.093Z,4.20
2023-04-12T16:09:06.807Z,5.47
2023-04-12T16:11:35.332Z,5.40
2023-04-12T16:14:03.267Z,4.57
2023-04-12T16:16:31.298Z,4.38
2023-04-12T16:19:00.208Z,4.05
2023-04-12T16:21:30.328Z,4.75
2023-04-12T16:23:59.664Z,3.92
2023-04-12T16:26:27.628Z,3.53
2023-04-12T16:28:55.893Z,3.50
2023-04-12T16:31:26.153Z,3.05
2023-04-12T16:33:54.796Z,2.50
2023-04-12T16:36:23.983Z,3.00
2023-04-12T16:38:54.584Z,2.85
2023-04-12T16:41:23.878Z,2.70
2023-04-12T16:43:53.835Z,2.63
2023-04-12T16:46:22.411Z,2.47
2023-04-12T16:48:50.601Z,2.40
2023-04-12T16:51:18.593Z,2.15
2023-04-12T16:53:46.500Z,2.30
2023-04-12T16:56:14.693Z,1.42
2023-04-12T16:58:45.417Z,1.52
2023-04-12T17:01:17.337Z,1.38
2023-04-12T17:03:50.470Z,1.45
2023-04-12T17:06:20.436Z,1.05
2023-04-12T17:08:49.237Z,0.80
2023-04-12T17:11:17.686Z,0.77
2023-04-12T17:13:54.810Z,0.70
2023-04-12T17:16:24.830Z,0.80
2023-04-12T17:18:53.667Z,1.02
2023-04-12T17:21:24.512Z,1.48
2023-04-12T17:23:56.105Z,0.98
2023-04-12T17:26:27.443Z,1.00
2023-04-12T17:29:12.744Z,0.65
2023-04-12T17:31:41.121Z,0.88
2023-04-12T17:34:09.254Z,1.00
2023-04-12T17:36:38.285Z,0.70
2023-04-12T17:39:06.210Z,0.77
2023-04-12T17:41:34.132Z,0.60
2023-04-12T17:44:03.569Z,2.17
2023-04-12T17:46:31.911Z,2.50
2023-04-12T17:49:02.639Z,2.72
2023-04-12T17:51:31.599Z,1.75
2023-04-12T17:54:00.530Z,2.33
2023-04-12T17:56:28.750Z,1.33
2023-04-12T17:58:57.339Z,0.88
2023-04-12T18:01:26.856Z,0.90
2023-04-12T18:03:54.926Z,0.75
2023-04-12T18:06:23.847Z,0.75
2023-04-12T18:08:52.722Z,0.80
2023-04-12T18:11:21.029Z,0.90
2023-04-12T18:13:48.939Z,0.63
2023-04-12T18:16:16.907Z,0.95
2023-04-12T18:18:46.223Z,0.47
2023-04-12T18:21:14.698Z,0.52
2023-04-12T18:23:42.759Z,0.60
2023-04-12T18:26:10.632Z,0.43
2023-04-12T18:28:39.710Z,0.70
2023-04-12T18:31:08.859Z,0.50
2023-04-12T18:33:36.768Z,0.65
2023-04-12T18:36:06.733Z,0.47
2023-04-12T18:38:35.636Z,0.80
2023-04-12T18:41:04.483Z,0.80
2023-04-12T18:43:32.547Z,0.70
2023-04-12T18:46:00.969Z,0.60
2023-04-12T18:48:30.381Z,0.82
2023-04-12T18:50:59.398Z,0.50
2023-04-12T18:53:28.650Z,0.70
2023-04-12T18:55:57.084Z,0.57
2023-04-12T18:58:25.205Z,0.60
2023-04-12T19:00:56.100Z,0.68
2023-04-12T19:03:25.610Z,0.90
2023-04-12T19:05:55.942Z,0.60
2023-04-12T19:08:23.962Z,0.90
2023-04-12T19:10:53.366Z,1.35
2023-04-12T19:13:21.684Z,1.08
2023-04-12T19:15:49.647Z,0.50
2023-04-12T19:18:17.647Z,0.70
2023-04-12T19:20:46.018Z,0.68
2023-04-12T19:23:14.861Z,0.77
2023-04-12T19:25:43.133Z,0.80
2023-04-12T19:28:12.444Z,0.85
2023-04-12T19:30:40.464Z,1.05
2023-04-12T19:33:09.100Z,0.70
2023-04-12T19:35:37.046Z,0.65
2023-04-12T19:38:04.969Z,0.63
2023-04-12T19:40:33.031Z,0.80
2023-04-12T19:43:01.181Z,0.70
2023-04-12T19:45:30.645Z,0.70
2023-04-12T19:47:58.625Z,1.23
2023-04-12T19:50:26.610Z,1.10
2023-04-12T19:52:55.298Z,0.98
2023-04-12T19:55:23.423Z,1.00
2023-04-12T19:57:51.412Z,0.80
2023-04-12T20:00:21.026Z,0.95
2023-04-12T20:02:51.854Z,1.05
2023-04-12T20:05:21.134Z,0.80
2023-04-12T20:07:49.848Z,0.60
2023-04-12T20:10:18.196Z,0.80
2023-04-12T20:12:46.800Z,0.60
2023-04-12T20:15:15.032Z,0.52
2023-04-12T20:17:44.734Z,0.90
2023-04-12T20:20:15.418Z,1.38
2023-04-12T20:22:46.105Z,1.05
2023-04-12T20:25:14.833Z,0.90
2023-04-12T20:27:44.744Z,0.60
2023-04-12T20:30:16.931Z,0.85
2023-04-12T20:32:44.994Z,2.17
2023-04-12T20:35:15.358Z,2.13
2023-04-12T20:37:43.526Z,1.38
2023-04-12T20:40:12.534Z,1.13
2023-04-12T20:42:42.522Z,1.20
2023-04-12T20:45:11.614Z,1.02
2023-04-12T20:47:39.542Z,0.60
2023-04-12T20:50:08.406Z,1.00
2023-04-12T20:52:38.163Z,0.90
2023-04-12T20:55:07.478Z,0.75
2023-04-12T20:57:35.988Z,0.90
2023-04-12T21:00:12.609Z,0.65
2023-04-12T21:02:40.708Z,0.70
2023-04-12T21:05:09.106Z,0.60
2023-04-12T21:07:41.248Z,0.70
2023-04-12T21:10:13.319Z,0.88
2023-04-12T21:12:42.607Z,0.80
2023-04-12T21:15:12.526Z,1.10
2023-04-12T21:17:40.960Z,0.80
2023-04-12T21:20:13.651Z,1.13
2023-04-12T21:22:45.082Z,1.00
2023-04-12T21:25:16.516Z,1.30
2023-04-12T21:27:46.723Z,1.02
2023-04-12T21:30:15.753Z,1.10
2023-04-12T21:32:43.971Z,1.00
2023-04-12T21:35:12.442Z,0.90
2023-04-12T21:37:41.049Z,0.90
2023-04-12T21:40:12.591Z,0.95
2023-04-12T21:42:41.889Z,0.50
2023-04-12T21:45:11.043Z,0.68
2023-04-12T21:47:41.006Z,0.70
2023-04-12T21:50:10.359Z,0.73
2023-04-12T21:52:39.010Z,0.52
2023-04-12T21:55:07.380Z,0.57
2023-04-12T21:57:36.994Z,0.47
2023-04-12T22:00:08.792Z,0.52
2023-04-12T22:02:40.085Z,0.40
2023-04-12T22:05:08.733Z,0.60
2023-04-12T22:07:41.158Z,0.68
2023-04-12T22:10:12.075Z,0.63
2023-04-12T22:12:42.408Z,0.55
2023-04-12T22:15:12.242Z,0.65
2023-04-12T22:17:40.823Z,0.98
2023-04-12T22:20:11.063Z,0.93
2023-04-12T22:22:39.126Z,0.60
2023-04-12T22:25:11.995Z,0.30
2023-04-12T22:27:42.172Z,0.60
2023-04-12T22:30:11.576Z,0.30
2023-04-12T22:32:40.114Z,0.60
2023-04-12T22:35:09.979Z,0.70
2023-04-12T22:37:39.063Z,0.50
2023-04-12T22:40:11.906Z,0.50
2023-04-12T22:42:46.559Z,0.70
2023-04-12T22:45:15.867Z,0.70
2023-04-12T22:47:44.120Z,0.50
2023-04-12T22:50:12.812Z,0.52
2023-04-12T22:52:41.921Z,0.43
2023-04-12T22:55:12.764Z,0.38
2023-04-12T22:57:42.473Z,0.50
2023-04-12T23:00:15.675Z,0.40
2023-04-12T23:02:44.159Z,0.35
2023-04-12T23:05:12.721Z,0.57
2023-04-12T23:07:41.269Z,0.50
2023-04-12T23:10:10.984Z,0.40
2023-04-12T23:12:38.959Z,0.40
2023-04-12T23:15:09.971Z,0.40
2023-04-12T23:17:38.002Z,0.40
2023-04-12T23:20:10.024Z,0.40
2023-04-12T23:22:57.490Z,0.40
2023-04-12T23:25:29.217Z,0.40
2023-04-12T23:27:57.440Z,0.40
2023-04-12T23:30:29.813Z,0.32
2023-04-12T23:32:58.335Z,0.40
2023-04-12T23:35:26.327Z,0.50
2023-04-12T23:37:54.464Z,0.40
2023-04-12T23:40:22.393Z,0.60
2023-04-12T23:42:50.807Z,0.50
2023-04-12T23:45:18.874Z,0.50
2023-04-12T23:47:48.234Z,0.63
2023-04-12T23:50:16.474Z,0.60
2023-04-12T23:52:44.410Z,0.90
2023-04-12T23:55:12.324Z,0.60
2023-04-12T23:57:40.204Z,0.88
